SWA1111 KDEN-KBZN
Flight info
| Callsign | SWA1111 |
|---|---|
| Flight time | N/A |
| Altitude | 36000 |
| Route | XXWNG1 XXWNG TOCUD |
| Aircraft | B737/M-SADE2E3GIJ4RWZ/LB1D1 |
Departure
| Time | 2026-05-06 16:49 |
|---|---|
| Airport | Denver International Airport (KDEN) |
Arrival
| Time | N/A |
|---|---|
| Airport | Bozeman Yellowstone International Airport (KBZN) |
| Time | Latitude | Longitude | Altitude | Speed | Heading |
|---|---|---|---|---|---|
| 2026-05-06 16:18 | 39.86355 | -104.67474 | 5375 ft | 0 kts | 196° |
| 2026-05-06 16:37 | 39.86359 | -104.67473 | 5375 ft | 2 kts | 196° |
| 2026-05-06 16:37 | 39.86377 | -104.67466 | 5375 ft | 3 kts | 196° |
| 2026-05-06 16:37 | 39.86396 | -104.67459 | 5372 ft | 3 kts | 196° |
| 2026-05-06 16:38 | 39.86416 | -104.67452 | 5372 ft | 3 kts | 196° |
| 2026-05-06 16:38 | 39.86435 | -104.67445 | 5371 ft | 2 kts | 196° |
| 2026-05-06 16:38 | 39.86442 | -104.67442 | 5369 ft | 1 kts | 196° |
| 2026-05-06 16:41 | 39.86429 | -104.67448 | 5371 ft | 5 kts | 208° |
| 2026-05-06 16:42 | 39.86418 | -104.67515 | 5373 ft | 12 kts | 268° |
| 2026-05-06 16:42 | 39.86416 | -104.67658 | 5374 ft | 18 kts | 270° |
| 2026-05-06 16:42 | 39.86417 | -104.67820 | 5374 ft | 18 kts | 271° |
| 2026-05-06 16:42 | 39.86416 | -104.67976 | 5374 ft | 17 kts | 271° |
| 2026-05-06 16:43 | 39.86421 | -104.68126 | 5372 ft | 16 kts | 274° |
| 2026-05-06 16:43 | 39.86427 | -104.68271 | 5369 ft | 16 kts | 271° |
| 2026-05-06 16:43 | 39.86399 | -104.68379 | 5366 ft | 12 kts | 210° |
| 2026-05-06 16:43 | 39.86315 | -104.68392 | 5368 ft | 12 kts | 179° |
| 2026-05-06 16:44 | 39.86208 | -104.68394 | 5368 ft | 17 kts | 181° |
| 2026-05-06 16:44 | 39.86092 | -104.68394 | 5371 ft | 16 kts | 180° |
| 2026-05-06 16:44 | 39.85980 | -104.68397 | 5372 ft | 16 kts | 181° |
| 2026-05-06 16:44 | 39.85873 | -104.68397 | 5372 ft | 15 kts | 179° |
| 2026-05-06 16:45 | 39.85769 | -104.68399 | 5372 ft | 16 kts | 182° |
| 2026-05-06 16:45 | 39.85637 | -104.68400 | 5373 ft | 22 kts | 180° |
| 2026-05-06 16:45 | 39.85466 | -104.68401 | 5374 ft | 27 kts | 180° |
| 2026-05-06 16:45 | 39.85294 | -104.68402 | 5379 ft | 23 kts | 179° |
| 2026-05-06 16:46 | 39.85200 | -104.68485 | 5374 ft | 18 kts | 275° |
| 2026-05-06 16:46 | 39.85204 | -104.68654 | 5367 ft | 20 kts | 268° |
| 2026-05-06 16:46 | 39.85201 | -104.68851 | 5359 ft | 24 kts | 269° |
| 2026-05-06 16:46 | 39.85197 | -104.69081 | 5349 ft | 26 kts | 269° |
| 2026-05-06 16:47 | 39.85201 | -104.69320 | 5341 ft | 26 kts | 271° |
| 2026-05-06 16:47 | 39.85204 | -104.69522 | 5332 ft | 5 kts | 270° |
| 2026-05-06 16:47 | 39.85204 | -104.69523 | 5332 ft | 0 kts | 270° |
| 2026-05-06 16:47 | 39.85204 | -104.69573 | 5332 ft | 11 kts | 270° |
| 2026-05-06 16:48 | 39.85240 | -104.69655 | 5336 ft | 11 kts | 328° |
| 2026-05-06 16:48 | 39.85324 | -104.69658 | 5334 ft | 22 kts | 0° |
| 2026-05-06 16:48 | 39.85545 | -104.69655 | 5332 ft | 74 kts | 1° |
| 2026-05-06 16:48 | 39.86297 | -104.69650 | 5323 ft | 140 kts | 0° |
| 2026-05-06 16:49 | 39.87842 | -104.69610 | 5696 ft | 184 kts | 4° |
| 2026-05-06 16:49 | 39.89175 | -104.69553 | 6306 ft | 199 kts | 4° |
| 2026-05-06 16:49 | 39.90128 | -104.69522 | 6741 ft | 207 kts | 4° |
| 2026-05-06 16:49 | 39.91632 | -104.69470 | 7131 ft | 226 kts | 4° |
| 2026-05-06 16:50 | 39.93293 | -104.69452 | 7366 ft | 251 kts | 2° |
| 2026-05-06 16:50 | 39.95121 | -104.69438 | 7614 ft | 271 kts | 2° |
| 2026-05-06 16:50 | 39.97038 | -104.69415 | 8037 ft | 280 kts | 2° |
| 2026-05-06 16:50 | 39.98998 | -104.69383 | 8582 ft | 284 kts | 2° |
| 2026-05-06 16:51 | 40.00988 | -104.69345 | 9125 ft | 288 kts | 1° |
| 2026-05-06 16:51 | 40.02981 | -104.69305 | 9593 ft | 293 kts | 1° |
| 2026-05-06 16:51 | 40.05027 | -104.69173 | 10174 ft | 295 kts | 6° |
| 2026-05-06 16:51 | 40.07101 | -104.68843 | 10390 ft | 308 kts | 7° |
| 2026-05-06 16:52 | 40.09277 | -104.68460 | 10471 ft | 322 kts | 7° |
| 2026-05-06 16:52 | 40.11497 | -104.68082 | 10430 ft | 313 kts | 7° |
| 2026-05-06 16:52 | 40.13570 | -104.67743 | 10318 ft | 287 kts | 7° |
| 2026-05-06 16:52 | 40.15478 | -104.67444 | 10211 ft | 267 kts | 5° |
| 2026-05-06 16:53 | 40.17286 | -104.67621 | 10091 ft | 261 kts | 347° |
| 2026-05-06 16:53 | 40.19059 | -104.68151 | 10045 ft | 261 kts | 347° |
| 2026-05-06 16:53 | 40.20817 | -104.68673 | 10052 ft | 259 kts | 347° |
| 2026-05-06 16:53 | 40.22586 | -104.69184 | 10053 ft | 260 kts | 347° |
| 2026-05-06 16:54 | 40.24357 | -104.69688 | 10053 ft | 260 kts | 347° |
| 2026-05-06 16:54 | 40.26123 | -104.70186 | 10034 ft | 259 kts | 347° |
| 2026-05-06 16:54 | 40.27885 | -104.70682 | 10036 ft | 258 kts | 347° |
| 2026-05-06 16:54 | 40.29643 | -104.71177 | 10049 ft | 258 kts | 347° |
| 2026-05-06 16:55 | 40.31401 | -104.71671 | 10051 ft | 258 kts | 347° |
| 2026-05-06 16:55 | 40.33130 | -104.72158 | 10046 ft | 258 kts | 347° |
| 2026-05-06 16:55 | 40.34888 | -104.72654 | 10034 ft | 258 kts | 347° |
| 2026-05-06 16:55 | 40.36648 | -104.73150 | 10042 ft | 258 kts | 347° |
| 2026-05-06 16:56 | 40.38366 | -104.73635 | 10045 ft | 259 kts | 347° |
| 2026-05-06 16:56 | 40.40131 | -104.74133 | 10034 ft | 259 kts | 347° |
| 2026-05-06 16:56 | 40.41894 | -104.74631 | 10036 ft | 259 kts | 347° |
| 2026-05-06 16:56 | 40.43654 | -104.75112 | 10030 ft | 259 kts | 346° |
| 2026-05-06 16:57 | 40.45246 | -104.76154 | 10031 ft | 257 kts | 316° |
| 2026-05-06 16:57 | 40.46228 | -104.78062 | 10027 ft | 253 kts | 286° |
| 2026-05-06 16:57 | 40.46449 | -104.80328 | 10057 ft | 251 kts | 269° |
| 2026-05-06 16:57 | 40.46251 | -104.82565 | 10021 ft | 250 kts | 245° |
| 2026-05-06 16:58 | 40.45159 | -104.84256 | 10044 ft | 245 kts | 208° |
| 2026-05-06 16:58 | 40.43582 | -104.85174 | 10052 ft | 246 kts | 202° |
| 2026-05-06 16:58 | 40.41971 | -104.85934 | 10037 ft | 246 kts | 195° |
| 2026-05-06 16:58 | 40.40389 | -104.86710 | 10044 ft | 247 kts | 204° |
| 2026-05-06 16:59 | 40.38833 | -104.87677 | 10033 ft | 247 kts | 201° |
| 2026-05-06 16:59 | 40.37220 | -104.88441 | 10046 ft | 248 kts | 202° |
| 2026-05-06 16:59 | 40.35631 | -104.89335 | 10048 ft | 249 kts | 200° |
| 2026-05-06 16:59 | 40.34013 | -104.90140 | 10054 ft | 249 kts | 200° |
| 2026-05-06 17:00 | 40.32380 | -104.90933 | 10035 ft | 248 kts | 200° |
| 2026-05-06 17:00 | 40.30783 | -104.91706 | 10025 ft | 246 kts | 199° |
| 2026-05-06 17:00 | 40.29185 | -104.92479 | 10022 ft | 244 kts | 199° |
| 2026-05-06 17:00 | 40.27599 | -104.93249 | 10035 ft | 243 kts | 199° |
| 2026-05-06 17:01 | 40.26020 | -104.94016 | 10059 ft | 243 kts | 200° |
| 2026-05-06 17:01 | 40.24430 | -104.94789 | 10063 ft | 243 kts | 199° |
| 2026-05-06 17:01 | 40.22839 | -104.95560 | 10052 ft | 244 kts | 199° |
| 2026-05-06 17:01 | 40.21237 | -104.96339 | 10053 ft | 245 kts | 199° |
| 2026-05-06 17:02 | 40.19639 | -104.97120 | 10069 ft | 245 kts | 199° |
| 2026-05-06 17:02 | 40.18058 | -104.97892 | 10051 ft | 245 kts | 199° |
| 2026-05-06 17:02 | 40.16464 | -104.98674 | 10058 ft | 245 kts | 200° |
| 2026-05-06 17:02 | 40.14865 | -104.99458 | 10061 ft | 245 kts | 199° |
| 2026-05-06 17:03 | 40.13271 | -105.00240 | 10053 ft | 244 kts | 199° |
| 2026-05-06 17:03 | 40.11675 | -105.01026 | 10040 ft | 246 kts | 199° |
| 2026-05-06 17:03 | 40.10072 | -105.01816 | 10013 ft | 246 kts | 199° |
| 2026-05-06 17:03 | 40.08472 | -105.02604 | 10043 ft | 246 kts | 199° |
| 2026-05-06 17:04 | 40.06867 | -105.03396 | 10021 ft | 247 kts | 199° |
| 2026-05-06 17:04 | 40.05264 | -105.04187 | 10025 ft | 247 kts | 200° |
| 2026-05-06 17:04 | 40.03655 | -105.04983 | 10033 ft | 247 kts | 199° |
| 2026-05-06 17:04 | 40.02042 | -105.05771 | 10019 ft | 247 kts | 196° |
| 2026-05-06 17:05 | 40.00377 | -105.05938 | 10043 ft | 244 kts | 172° |
| 2026-05-06 17:05 | 39.98687 | -105.05541 | 9987 ft | 245 kts | 168° |
| 2026-05-06 17:05 | 39.97015 | -105.05086 | 9901 ft | 244 kts | 168° |
| 2026-05-06 17:05 | 39.95360 | -105.04626 | 9815 ft | 244 kts | 167° |
| 2026-05-06 17:06 | 39.93689 | -105.04160 | 9694 ft | 246 kts | 167° |
| 2026-05-06 17:06 | 39.92042 | -105.03702 | 9542 ft | 245 kts | 167° |
| 2026-05-06 17:06 | 39.90378 | -105.03243 | 9384 ft | 244 kts | 167° |
| 2026-05-06 17:06 | 39.88773 | -105.02564 | 9192 ft | 244 kts | 147° |
| 2026-05-06 17:07 | 39.87445 | -105.01199 | 9110 ft | 243 kts | 139° |
| 2026-05-06 17:07 | 39.86189 | -104.99732 | 9038 ft | 243 kts | 137° |
| 2026-05-06 17:07 | 39.84937 | -104.98252 | 9033 ft | 240 kts | 137° |
| 2026-05-06 17:07 | 39.83702 | -104.96785 | 9036 ft | 241 kts | 137° |
| 2026-05-06 17:08 | 39.82460 | -104.95304 | 9031 ft | 243 kts | 137° |
| 2026-05-06 17:08 | 39.81218 | -104.93823 | 9023 ft | 240 kts | 137° |
| 2026-05-06 17:08 | 39.80006 | -104.92379 | 9001 ft | 239 kts | 137° |
| 2026-05-06 17:08 | 39.78767 | -104.90902 | 8989 ft | 237 kts | 137° |
| 2026-05-06 17:09 | 39.77566 | -104.89471 | 8976 ft | 237 kts | 137° |
| 2026-05-06 17:09 | 39.76348 | -104.88019 | 8984 ft | 237 kts | 137° |
| 2026-05-06 17:09 | 39.75135 | -104.86573 | 8986 ft | 237 kts | 137° |
| 2026-05-06 17:09 | 39.73921 | -104.85125 | 8974 ft | 237 kts | 137° |
| 2026-05-06 17:10 | 39.72706 | -104.83676 | 8978 ft | 238 kts | 137° |
| 2026-05-06 17:10 | 39.71488 | -104.82220 | 8977 ft | 237 kts | 137° |
| 2026-05-06 17:10 | 39.70279 | -104.80775 | 8979 ft | 234 kts | 137° |
| 2026-05-06 17:10 | 39.69098 | -104.79361 | 9000 ft | 228 kts | 137° |
| 2026-05-06 17:11 | 39.67943 | -104.77974 | 9010 ft | 225 kts | 137° |
| 2026-05-06 17:11 | 39.66780 | -104.76576 | 8811 ft | 231 kts | 137° |
| 2026-05-06 17:11 | 39.65772 | -104.74955 | 8536 ft | 234 kts | 114° |
| 2026-05-06 17:11 | 39.65408 | -104.72925 | 8297 ft | 228 kts | 99° |
| 2026-05-06 17:12 | 39.65332 | -104.70889 | 8036 ft | 226 kts | 79° |
| 2026-05-06 17:12 | 39.66007 | -104.69056 | 8012 ft | 228 kts | 47° |
| 2026-05-06 17:12 | 39.67324 | -104.68206 | 7952 ft | 210 kts | 4° |
| 2026-05-06 17:12 | 39.68669 | -104.68690 | 7985 ft | 198 kts | 338° |
| 2026-05-06 17:13 | 39.70007 | -104.68916 | 7977 ft | 192 kts | 7° |
| 2026-05-06 17:13 | 39.71290 | -104.68862 | 7920 ft | 177 kts | 2° |
| 2026-05-06 17:13 | 39.72500 | -104.68857 | 7886 ft | 168 kts | 3° |
| 2026-05-06 17:13 | 39.73636 | -104.68853 | 7794 ft | 157 kts | 3° |
| 2026-05-06 17:14 | 39.74683 | -104.68847 | 7568 ft | 149 kts | 4° |
| 2026-05-06 17:14 | 39.75694 | -104.68840 | 7362 ft | 143 kts | 4° |
| 2026-05-06 17:14 | 39.76687 | -104.68830 | 7211 ft | 143 kts | 5° |
| 2026-05-06 17:14 | 39.77684 | -104.68818 | 7055 ft | 143 kts | 4° |
| 2026-05-06 17:15 | 39.78675 | -104.68808 | 6878 ft | 142 kts | 5° |
| 2026-05-06 17:15 | 39.79657 | -104.68795 | 6687 ft | 140 kts | 5° |
| 2026-05-06 17:15 | 39.80630 | -104.68783 | 6451 ft | 141 kts | 4° |
| 2026-05-06 17:15 | 39.81601 | -104.68773 | 6267 ft | 139 kts | 4° |
| 2026-05-06 17:16 | 39.82571 | -104.68764 | 6089 ft | 139 kts | 4° |
| 2026-05-06 17:16 | 39.83549 | -104.68751 | 5933 ft | 142 kts | 3° |
| 2026-05-06 17:16 | 39.84548 | -104.68734 | 5797 ft | 140 kts | 3° |
| 2026-05-06 17:16 | 39.85502 | -104.68735 | 5609 ft | 136 kts | 2° |
| 2026-05-06 17:17 | 39.86450 | -104.68727 | 5386 ft | 135 kts | 5° |
| 2026-05-06 17:17 | 39.87311 | -104.68708 | 5357 ft | 101 kts | 359° |
| 2026-05-06 17:17 | 39.87794 | -104.68703 | 5358 ft | 41 kts | 1° |
| 2026-05-06 17:17 | 39.88055 | -104.68698 | 5360 ft | 35 kts | 359° |
| 2026-05-06 17:18 | 39.88297 | -104.68693 | 5362 ft | 34 kts | 4° |
| 2026-05-06 17:18 | 39.88516 | -104.68629 | 5362 ft | 30 kts | 26° |
| 2026-05-06 17:18 | 39.88600 | -104.68493 | 5362 ft | 15 kts | 120° |
| 2026-05-06 17:18 | 39.88523 | -104.68487 | 5362 ft | 11 kts | 186° |
| 2026-05-06 17:19 | 39.88428 | -104.68486 | 5361 ft | 26 kts | 177° |
| 2026-05-06 17:19 | 39.88224 | -104.68484 | 5359 ft | 29 kts | 179° |
| 2026-05-06 17:19 | 39.88048 | -104.68488 | 5358 ft | 24 kts | 179° |
| 2026-05-06 17:19 | 39.87888 | -104.68489 | 5356 ft | 23 kts | 181° |
| 2026-05-06 17:20 | 39.87733 | -104.68491 | 5355 ft | 22 kts | 180° |
| 2026-05-06 17:20 | 39.87584 | -104.68494 | 5356 ft | 21 kts | 178° |
| 2026-05-06 17:20 | 39.87438 | -104.68497 | 5356 ft | 21 kts | 181° |
| 2026-05-06 17:20 | 39.87296 | -104.68498 | 5356 ft | 20 kts | 180° |
| 2026-05-06 17:21 | 39.87159 | -104.68500 | 5358 ft | 19 kts | 179° |
| 2026-05-06 17:21 | 39.87026 | -104.68499 | 5358 ft | 19 kts | 181° |
| 2026-05-06 17:21 | 39.86892 | -104.68501 | 5360 ft | 21 kts | 180° |
| 2026-05-06 17:21 | 39.86734 | -104.68499 | 5361 ft | 23 kts | 179° |
| 2026-05-06 17:22 | 39.86578 | -104.68500 | 5362 ft | 22 kts | 180° |
| 2026-05-06 17:22 | 39.86457 | -104.68495 | 5363 ft | 12 kts | 163° |
| 2026-05-06 17:22 | 39.86427 | -104.68401 | 5368 ft | 12 kts | 90° |
| 2026-05-06 17:22 | 39.86426 | -104.68294 | 5368 ft | 12 kts | 91° |
| 2026-05-06 17:23 | 39.86428 | -104.68165 | 5369 ft | 19 kts | 88° |
| 2026-05-06 17:23 | 39.86420 | -104.67979 | 5374 ft | 21 kts | 92° |
| 2026-05-06 17:23 | 39.86415 | -104.67789 | 5374 ft | 21 kts | 90° |
| 2026-05-06 17:23 | 39.86416 | -104.67604 | 5374 ft | 20 kts | 90° |
| 2026-05-06 17:24 | 39.86416 | -104.67489 | 5374 ft | 6 kts | 91° |
| 2026-05-06 17:24 | 39.86393 | -104.67461 | 5375 ft | 5 kts | 180° |
| 2026-05-06 17:24 | 39.86362 | -104.67471 | 5375 ft | 2 kts | 197° |
| 2026-05-06 17:24 | 39.86359 | -104.67473 | 5372 ft | 0 kts | 196° |
| 2026-05-06 17:25 | 39.86358 | -104.67473 | 5372 ft | 0 kts | 196° |